Airfield :
LOGIN :

Register | Disclaimer

   EN    FR    IT 

 










Legend :    VFR   Marginal VFR   IFR   Intensive IFR   Very Intensive IFR
Visi :
Ceiling :
>= 8 km
>= 3000ft
5 to 8 km
1000 to 3000 ft
1500m to 5 km
500 to 1000 ft
800 to 1500m
200 to 500 ft
< 800m
< 200 ft
Symbols :   Thunderstorms  Fog  Heavy snow  Heavy precipitations  Wind > 20 kt
SIGMETs :     Misc.  Thunderstorms  Icing  Turbulence  Mountain Waves  Volcanic Ashes






- Airport Elevation : 16 ft
- IATA code : SDR


LEXJ - Santander Cantabria

CURRENT METAR :
  • 161900Z 21010KT 160V260 9999 FEW065 BKN083 19/13 Q1012

EXPIRED METARs :
  • 161830Z 20013G23KT 160V240 9999 -RA FEW070 BKN084 19/13 Q1012
  • 161800Z 20011G21KT 150V250 9000 -RA FEW065 BKN080 19/13 Q1012
  • 161730Z 21010KT 160V280 9999 -RA FEW065 BKN084 21/11 Q1012
  • 161700Z 21014KT 140V270 9999 BKN078 21/11 Q1011
  • 161630Z 21015G27KT 160V250 9999 SCT080 21/11 Q1011
  • 161600Z 20016G29KT 150V240 9999 FEW085 22/11 Q1011

TAF AMD TAF LEXJ
Valid from the 16 at 17:00 until the 17 at 15:00 UTC


161737Z 1617/1715 19012KT 9999 BKN060 TX20/1617Z TN16/1706Z
TEMPO 1617/1624 20018G28KT
TEMPO 1617/1619 RA
TEMPO 1621/1709 VRB04KT
TEMPO 1700/1709 RA
BECMG 1710/1713 30012KT



MET'MAP, your aeronautical weather chart ! - Copyright ORBIFLY December 2007 - Disclaimer

ORBIFLY MET'MAP TEAM :

Programming & Development : Alexandra Zaïnal
Concept & Development : Baudouin d'Aumeries
Co-Development & Prog : Marc-Olivier Méhu
Technical & hardware support : Manuel Goepfert

Contact : metmap@orbifly.com




SOURCES & CREDITS :

   NOAA